This is the latest recevied weather packets stored in our database for station/object PD3EM. If no packets are shown the sender has not sent any weather packets the latest 10 day(s).
| Time | Temp. | Humidity | Pressure | Rain* | Wind** | Luminosity | Snow |
|---|---|---|---|---|---|---|---|
| 1777161595 | 6.67° C | 89% | 1025.3 hPa | 0 mm | - | 0 W/m² | - |
| 1777157386 | 7.78° C | 87% | 1024.7 hPa | 0 mm | - | 0 W/m² | - |
| 1777153819 | 7.78° C | 84% | 1024 hPa | 0 mm | - | 0 W/m² | - |
| 1777149570 | 8.89° C | 76% | 1023.5 hPa | 0 mm | - | 0 W/m² | - |
| 1777148368 | 9.44° C | 72% | 1023.4 hPa | 0 mm | - | 0 W/m² | - |
| 1777141755 | 12.78° C | 51% | 1023 hPa | 0 mm | - | 16 W/m² | - |
| 1777136344 | 15.56° C | 44% | 1022.5 hPa | 0 mm | - | 45 W/m² | - |
| 1777133979 | 16.11° C | 43% | 1022.4 hPa | 0 mm | - | 146 W/m² | - |
| 1777133337 | 16.11° C | 44% | 1022.2 hPa | 0 mm | - | 219 W/m² | - |
| 1777129730 | 16.67° C | 46% | 1022 hPa | 0 mm | - | 373 W/m² | - |
| 1777127926 | 17.22° C | 43% | 1022.2 hPa | 0 mm | - | 434 W/m² | - |
| 1777120752 | 16.67° C | 60% | 1022.7 hPa | 0 mm | - | 581 W/m² | - |
| 1777118908 | 15.56° C | 58% | 1022.8 hPa | 0 mm | - | 602 W/m² | - |
| 1777118307 | 15.56° C | 59% | 1022.9 hPa | 0 mm | - | 602 W/m² | - |
| 1777112896 | 11.67° C | 73% | 1023.4 hPa | 0 mm | - | 582 W/m² | - |
| 1777105080 | 7.22° C | 88% | 1023.3 hPa | 0 mm | - | 243 W/m² | - |
| 1777103878 | 6.11° C | 90% | 1023.6 hPa | 0 mm | - | 189 W/m² | - |
| 1777102675 | 5.56° C | 91% | 1023.5 hPa | 0 mm | - | 122 W/m² | - |
| 1777096663 | 4.44° C | 93% | 1022.9 hPa | 0 mm | - | 39 W/m² | - |
| 1777095461 | 4.44° C | 93% | 1022.9 hPa | 0 mm | - | 25 W/m² | - |
| 1777092454 | 5° C | 93% | 1022.5 hPa | 0 mm | - | 6 W/m² | - |
| 1777090651 | 5° C | 93% | 1022.5 hPa | 0 mm | - | 1 W/m² | - |
| 1777088847 | 5° C | 93% | 1022.7 hPa | 0 mm | - | 0 W/m² | - |
| 1777087084 | 5.56° C | 93% | 1022.8 hPa | 0 mm | - | 0 W/m² | - |
| 1777085881 | 5.56° C | 93% | 1022.9 hPa | 0 mm | - | 0 W/m² | - |
* Rain latest hour (hover to see other rain measurements)
** Current wind speed in m/s (hover to see current wind gust speed)